Time;durP1;ratioP1;P1;durP2;ratioP2;P2;SDS_P1;SDS_P2;PMS_P1;PMS_P2;Temp;Humidity;BMP_temperature;BMP_pressure;BME280_temperature;BME280_humidity;BME280_pressure;Samples;Min_cycle;Max_cycle;Signal;HPM_P1;HPM_P2
2022/03/28 00:01:10;;;;;;;0.50;0.40;;;;;;;5.52;83.50;102052.91;5072971;28;21055;-71
2022/03/28 00:03:37;;;;;;;0.40;0.30;;;;;;;5.42;84.48;102049.16;5073387;28;20449;-72
2022/03/28 00:06:04;;;;;;;0.40;0.30;;;;;;;5.47;83.64;102051.94;5073433;28;20440;-72
2022/03/28 00:08:32;;;;;;;0.40;0.30;;;;;;;5.41;84.46;102047.50;5073285;28;20511;-72
2022/03/28 00:10:58;;;;;;;0.40;0.30;;;;;;;5.40;84.14;102040.47;5073299;28;20469;-71
2022/03/28 00:13:25;;;;;;;2.33;2.23;;;;;;;5.39;84.02;102036.97;5073287;28;20444;-71
2022/03/28 00:15:51;;;;;;;0.40;0.30;;;;;;;5.42;83.66;102041.91;5073267;28;20444;-72
2022/03/28 00:18:18;;;;;;;0.40;0.30;;;;;;;5.39;85.74;102044.22;5073273;28;20477;-72
2022/03/28 00:20:46;;;;;;;0.40;0.30;;;;;;;5.41;87.12;102039.44;5073199;28;20463;-72
2022/03/28 00:23:13;;;;;;;0.40;0.30;;;;;;;5.40;87.72;102035.94;5073177;28;20481;-72
2022/03/28 00:25:42;;;;;;;0.40;0.40;;;;;;;5.41;87.52;102036.78;5073172;28;20445;-72
2022/03/28 00:28:09;;;;;;;0.40;0.30;;;;;;;5.42;87.75;102046.47;5073094;28;20485;-72
2022/03/28 00:30:35;;;;;;;0.40;0.37;;;;;;;5.44;87.36;102028.22;5073006;28;20472;-73
2022/03/28 00:33:01;;;;;;;0.40;0.30;;;;;;;5.47;87.27;102031.28;5072809;28;20965;-72
2022/03/28 00:35:29;;;;;;;0.40;0.30;;;;;;;5.42;87.98;102022.28;5073072;28;20447;-70
2022/03/28 00:37:56;;;;;;;0.50;0.50;;;;;;;5.37;88.44;102014.09;5073185;28;20441;-69
2022/03/28 00:40:23;;;;;;;0.40;0.30;;;;;;;5.32;88.65;102009.41;5072970;28;20488;-69
2022/03/28 00:42:51;;;;;;;0.40;0.30;;;;;;;5.33;88.05;102013.72;5073069;28;20540;-72
2022/03/28 00:45:18;;;;;;;0.40;0.30;;;;;;;5.31;87.74;102005.91;5072954;28;20441;-72
2022/03/28 00:47:44;;;;;;;0.40;0.30;;;;;;;5.34;85.29;102003.78;5072902;28;20565;-72
2022/03/28 00:50:11;;;;;;;0.40;0.30;;;;;;;5.29;84.48;102001.81;5072848;28;20824;-72
2022/03/28 00:52:38;;;;;;;0.40;0.30;;;;;;;5.22;84.39;102001.06;5072620;28;20444;-72
2022/03/28 00:55:06;;;;;;;0.40;0.30;;;;;;;5.18;84.68;101997.22;5072879;28;20813;-72
2022/03/28 00:57:33;;;;;;;0.40;0.30;;;;;;;5.15;84.03;101995.00;5076129;28;20441;-72
2022/03/28 01:00:05;;;;;;;0.40;0.30;;;;;;;5.14;84.35;101993.38;5076612;28;20461;-72
2022/03/28 01:02:32;;;;;;;0.40;0.30;;;;;;;5.05;84.38;101990.19;5076792;28;20456;-72
2022/03/28 01:04:58;;;;;;;0.40;0.30;;;;;;;4.97;85.07;101988.66;5076395;28;20823;-72
2022/03/28 01:07:26;;;;;;;0.40;0.30;;;;;;;4.98;85.52;101989.47;5076550;28;20472;-72
2022/03/28 01:09:54;;;;;;;0.40;0.30;;;;;;;4.94;84.74;101988.28;5076551;28;20519;-72
2022/03/28 01:12:22;;;;;;;0.40;0.30;;;;;;;4.93;84.29;101981.28;5076599;28;20854;-71
2022/03/28 01:14:50;;;;;;;0.40;0.30;;;;;;;4.78;85.04;101985.22;5076528;28;20835;-72
2022/03/28 01:20:01;;;;;;;0.40;0.30;;;;;;;4.78;87.79;101974.47;5076291;28;20441;-72
2022/03/28 01:22:29;;;;;;;0.40;0.30;;;;;;;4.86;87.36;101972.50;5076449;28;20548;-72
2022/03/28 01:25:01;;;;;;;0.40;0.30;;;;;;;4.85;88.36;101968.19;5076527;28;20445;-72
2022/03/28 01:27:28;;;;;;;0.50;0.50;;;;;;;4.90;88.33;101971.81;5076043;28;20472;-72
2022/03/28 01:29:55;;;;;;;0.40;0.30;;;;;;;4.87;88.69;101966.06;5076253;28;20465;-72
2022/03/28 01:32:22;;;;;;;0.40;0.30;;;;;;;4.87;88.51;101971.44;5076199;28;20437;-72
2022/03/28 01:34:48;;;;;;;0.40;0.30;;;;;;;4.81;89.48;101963.25;5076175;28;20438;-71
2022/03/28 01:37:14;;;;;;;2.00;1.90;;;;;;;4.83;89.82;101970.28;5076045;28;20866;-72
2022/03/28 01:39:42;;;;;;;0.40;0.30;;;;;;;4.81;89.76;101957.88;5075977;28;20461;-72
2022/03/28 01:42:09;;;;;;;15.97;12.43;;;;;;;4.90;88.84;101966.44;5076019;28;20445;-72
2022/03/28 01:44:35;;;;;;;0.40;0.30;;;;;;;4.92;88.76;101964.34;5075990;28;20850;-72
2022/03/28 01:47:02;;;;;;;0.40;0.30;;;;;;;4.87;87.76;101961.53;5075541;28;20947;-72
2022/03/28 01:49:28;;;;;;;0.40;0.30;;;;;;;4.80;87.16;101961.63;5075811;28;20803;-73
2022/03/28 01:51:54;;;;;;;0.40;0.30;;;;;;;4.72;86.64;101964.63;5075861;28;20437;-71
2022/03/28 01:54:21;;;;;;;0.40;0.30;;;;;;;4.75;85.46;101950.75;5075820;28;20441;-71
2022/03/28 01:56:49;;;;;;;0.50;0.50;;;;;;;4.70;86.11;101952.50;5075739;28;20453;-71
2022/03/28 01:59:15;;;;;;;0.40;0.30;;;;;;;4.64;86.25;101950.69;5075708;28;20433;-72
2022/03/28 02:01:42;;;;;;;0.40;0.30;;;;;;;4.62;86.41;101956.31;5075291;28;20484;-71
2022/03/28 02:04:09;;;;;;;0.50;0.50;;;;;;;4.60;85.92;101944.97;5075360;28;20452;-71
2022/03/28 02:06:35;;;;;;;0.40;0.30;;;;;;;4.49;86.70;101933.16;5075705;28;20429;-72
2022/03/28 02:09:03;;;;;;;0.40;0.30;;;;;;;4.55;86.56;101936.78;5075064;28;20492;-71
2022/03/28 02:11:30;;;;;;;0.40;0.33;;;;;;;4.54;86.63;101932.47;5075443;28;20467;-71
2022/03/28 02:13:58;;;;;;;0.40;0.30;;;;;;;4.53;85.20;101926.28;5075452;28;20441;-71
2022/03/28 02:16:24;;;;;;;0.40;0.30;;;;;;;4.48;85.30;101926.16;5075488;28;20479;-72
2022/03/28 02:18:50;;;;;;;0.40;0.30;;;;;;;4.40;86.53;101928.34;5075321;28;20441;-72
2022/03/28 02:21:17;;;;;;;0.50;0.50;;;;;;;4.38;87.73;101927.72;5075256;28;20530;-72
2022/03/28 02:23:43;;;;;;;0.40;0.30;;;;;;;4.42;88.46;101918.19;5075245;28;20486;-72
2022/03/28 02:26:10;;;;;;;0.40;0.30;;;;;;;4.49;88.69;101911.69;5075242;28;20452;-72
2022/03/28 02:28:36;;;;;;;0.40;0.40;;;;;;;4.44;90.03;101916.94;5075090;28;20488;-72
2022/03/28 02:31:04;;;;;;;0.40;0.30;;;;;;;4.34;91.10;101908.59;5075073;28;20468;-71
2022/03/28 02:33:30;;;;;;;0.40;0.30;;;;;;;4.37;90.81;101907.31;5076459;28;20452;-72
2022/03/28 02:35:57;;;;;;;0.40;0.30;;;;;;;4.36;90.75;101911.06;5075084;28;20448;-73
2022/03/28 02:38:23;;;;;;;0.40;0.30;;;;;;;4.47;90.34;101910.28;5075022;28;20464;-74
2022/03/28 02:40:50;;;;;;;0.40;0.30;;;;;;;4.49;89.80;101911.69;5074984;28;20457;-71
2022/03/28 02:43:16;;;;;;;0.40;0.30;;;;;;;4.49;89.83;101903.66;5074811;28;20462;-72
2022/03/28 02:45:43;;;;;;;0.40;0.30;;;;;;;4.43;89.80;101899.19;5074787;28;20441;-71
2022/03/28 02:48:11;;;;;;;0.40;0.30;;;;;;;4.47;89.28;101899.53;5074649;28;20485;-71
2022/03/28 02:50:37;;;;;;;1.70;1.60;;;;;;;4.37;87.72;101893.91;5074336;28;20982;-72
2022/03/28 02:53:04;;;;;;;0.93;0.90;;;;;;;4.21;88.42;101892.69;5074339;28;20822;-72
2022/03/28 02:55:30;;;;;;;0.40;0.30;;;;;;;4.10;90.69;101894.25;5074763;28;20449;-72
2022/03/28 02:57:57;;;;;;;0.40;0.30;;;;;;;4.20;90.05;101897.22;5074608;28;20441;-72
2022/03/28 03:00:23;;;;;;;0.40;0.30;;;;;;;4.15;90.90;101888.22;5074443;28;20477;-72
2022/03/28 03:02:51;;;;;;;0.40;0.30;;;;;;;4.18;90.19;101893.13;5074450;28;20451;-72
2022/03/28 03:05:19;;;;;;;0.40;0.30;;;;;;;4.13;89.93;101893.00;5074070;28;20442;-72
2022/03/28 03:07:45;;;;;;;0.40;0.30;;;;;;;4.07;89.40;101888.53;5074308;28;20484;-72
2022/03/28 03:10:11;;;;;;;0.40;0.30;;;;;;;4.09;88.88;101889.94;5073895;28;20826;-72
2022/03/28 03:12:38;;;;;;;0.40;0.30;;;;;;;4.07;88.28;101883.97;5074224;28;20446;-71
2022/03/28 03:15:05;;;;;;;0.40;0.30;;;;;;;3.94;89.06;101878.78;5074220;28;20448;-72
2022/03/28 03:17:32;;;;;;;0.40;0.30;;;;;;;3.95;88.68;101877.75;5073883;28;21004;-72
2022/03/28 03:19:58;;;;;;;0.40;0.30;;;;;;;3.95;88.51;101872.38;5073355;28;20828;-72
2022/03/28 03:22:27;;;;;;;0.40;0.30;;;;;;;4.05;87.60;101867.31;5074096;28;20441;-70
2022/03/28 03:24:53;;;;;;;0.40;0.30;;;;;;;3.97;87.94;101864.94;5074012;28;20441;-69
2022/03/28 03:27:20;;;;;;;0.40;0.30;;;;;;;3.92;87.47;101859.44;5074028;28;20441;-69
2022/03/28 03:29:47;;;;;;;0.40;0.30;;;;;;;3.89;87.96;101865.22;5073451;28;21014;-69
2022/03/28 03:32:14;;;;;;;0.40;0.30;;;;;;;3.88;89.53;101861.75;5073962;28;20447;-69
2022/03/28 03:34:41;;;;;;;0.40;0.30;;;;;;;3.89;90.78;101866.03;5073845;28;20524;-69
2022/03/28 03:37:07;;;;;;;0.40;0.30;;;;;;;3.85;90.32;101866.72;5073819;28;20849;-69
2022/03/28 03:39:36;;;;;;;0.40;0.30;;;;;;;3.85;90.63;101862.19;5073730;28;20468;-72
2022/03/28 03:42:03;;;;;;;0.40;0.30;;;;;;;3.86;89.34;101861.16;5073831;28;20447;-70
2022/03/28 03:44:31;;;;;;;0.40;0.30;;;;;;;3.72;90.98;101860.50;5073666;28;20449;-70
2022/03/28 03:46:57;;;;;;;0.40;0.30;;;;;;;3.86;90.47;101854.97;5073644;28;20437;-70
2022/03/28 03:49:24;;;;;;;0.40;0.30;;;;;;;3.94;90.49;101855.50;5073507;28;20481;-70
2022/03/28 03:51:50;;;;;;;0.40;0.30;;;;;;;3.78;92.00;101856.91;5073654;28;20441;-70
2022/03/28 03:54:16;;;;;;;0.40;0.30;;;;;;;3.85;91.81;101851.47;5073530;28;20441;-70
2022/03/28 03:56:44;;;;;;;0.40;0.30;;;;;;;3.94;91.40;101847.44;5073526;28;20551;-70
2022/03/28 03:59:11;;;;;;;0.40;0.30;;;;;;;3.88;92.61;101844.84;5073539;28;20437;-70
2022/03/28 04:01:37;;;;;;;0.40;0.30;;;;;;;3.95;92.62;101843.72;5072951;28;21016;-71
2022/03/28 04:04:04;;;;;;;0.40;0.30;;;;;;;3.98;92.23;101839.75;5073401;28;20528;-70
2022/03/28 04:06:30;;;;;;;0.40;0.30;;;;;;;3.92;92.89;101846.03;5073407;28;20441;-70
2022/03/28 04:08:57;;;;;;;10.60;7.23;;;;;;;3.95;92.82;101843.72;5073406;28;20481;-70
2022/03/28 04:11:24;;;;;;;2.00;1.90;;;;;;;3.99;92.58;101841.41;5073335;28;20469;-70
2022/03/28 04:13:52;;;;;;;0.40;0.30;;;;;;;4.06;92.43;101836.75;5073037;28;20805;-70
2022/03/28 04:16:19;;;;;;;0.50;0.50;;;;;;;4.07;90.83;101832.22;5072980;28;20449;-70
2022/03/28 04:18:45;;;;;;;2.50;2.40;;;;;;;3.82;90.90;101835.03;5073315;28;20429;-70
2022/03/28 04:21:11;;;;;;;0.40;0.30;;;;;;;3.82;90.07;101827.81;5073190;28;20469;-69
2022/03/28 04:23:38;;;;;;;0.40;0.30;;;;;;;3.72;90.97;101831.03;5073214;28;20445;-69
2022/03/28 04:26:04;;;;;;;0.40;0.30;;;;;;;3.77;89.72;101823.13;5073290;28;20441;-69
2022/03/28 04:28:31;;;;;;;0.40;0.30;;;;;;;3.69;90.09;101831.47;5073096;28;20584;-70
2022/03/28 04:30:59;;;;;;;0.40;0.30;;;;;;;3.76;90.45;101826.00;5072830;28;20457;-69
2022/03/28 04:33:25;;;;;;;0.40;0.30;;;;;;;3.69;89.32;101834.13;5073082;28;20445;-70
2022/03/28 04:35:52;;;;;;;0.40;0.30;;;;;;;3.67;89.89;101828.16;5073047;28;20876;-70
2022/03/28 04:38:19;;;;;;;0.40;0.30;;;;;;;3.70;89.78;101832.28;5073077;28;20442;-70
2022/03/28 04:40:45;;;;;;;0.40;0.30;;;;;;;3.63;90.20;101831.53;5072694;28;20469;-70
2022/03/28 04:43:12;;;;;;;0.40;0.30;;;;;;;3.61;90.72;101837.13;5073033;28;20458;-70
2022/03/28 04:45:38;;;;;;;0.50;0.50;;;;;;;3.68;90.97;101827.16;5073007;28;20460;-70
2022/03/28 04:48:07;;;;;;;0.40;0.30;;;;;;;3.58;90.25;101826.84;5073092;28;20853;-69
2022/03/28 04:50:33;;;;;;;0.40;0.30;;;;;;;3.54;90.68;101823.81;5072889;28;20462;-69
2022/03/28 04:53:00;;;;;;;0.50;0.30;;;;;;;3.67;90.54;101822.81;5072937;28;20851;-68
2022/03/28 04:55:27;;;;;;;0.40;0.30;;;;;;;3.63;91.84;101824.34;5072918;28;20445;-68
2022/03/28 04:57:53;;;;;;;0.40;0.30;;;;;;;3.61;93.30;101812.19;5072480;28;20964;-68
2022/03/28 05:00:20;;;;;;;0.40;0.30;;;;;;;3.54;93.89;101822.97;5072348;28;20488;-69
2022/03/28 05:02:46;;;;;;;0.40;0.30;;;;;;;3.46;94.57;101824.09;5072541;28;20906;-69
2022/03/28 05:05:14;;;;;;;0.40;0.30;;;;;;;3.45;95.23;101824.31;5072493;28;20856;-68
2022/03/28 05:07:41;;;;;;;0.40;0.30;;;;;;;3.56;95.31;101825.44;5072771;28;20449;-69
2022/03/28 05:10:08;;;;;;;0.60;0.50;;;;;;;3.55;95.41;101827.31;5072580;28;20484;-69
2022/03/28 05:12:35;;;;;;;0.40;0.30;;;;;;;3.57;95.80;101825.22;5072692;28;20499;-69
2022/03/28 05:15:03;;;;;;;0.40;0.30;;;;;;;3.54;96.28;101829.16;5072753;28;20445;-69
2022/03/28 05:17:31;;;;;;;0.40;0.30;;;;;;;3.58;96.43;101826.84;5072732;28;20437;-69
2022/03/28 05:19:59;;;;;;;0.60;0.33;;;;;;;3.70;95.94;101830.41;5072310;28;20872;-70
2022/03/28 05:22:27;;;;;;;5.13;4.73;;;;;;;3.69;94.40;101827.97;5072569;28;20452;-69
2022/03/28 05:24:55;;;;;;;0.40;0.30;;;;;;;3.73;93.88;101821.94;5072254;28;20449;-69
2022/03/28 05:27:21;;;;;;;0.40;0.30;;;;;;;3.81;93.09;101823.50;5072582;28;20441;-69
2022/03/28 05:29:48;;;;;;;0.40;0.30;;;;;;;3.92;92.87;101825.41;5072392;28;20534;-70
2022/03/28 05:32:15;;;;;;;0.40;0.30;;;;;;;3.92;92.57;101820.03;5072528;28;20874;-69
2022/03/28 05:34:42;;;;;;;0.40;0.30;;;;;;;3.83;92.81;101825.94;5072533;28;20440;-69
2022/03/28 05:37:11;;;;;;;0.40;0.30;;;;;;;3.87;92.13;101813.72;5072443;28;20819;-69
2022/03/28 05:39:40;;;;;;;0.83;0.83;;;;;;;3.91;92.05;101812.25;5072215;28;20518;-69
2022/03/28 05:42:08;;;;;;;0.40;0.30;;;;;;;4.03;91.70;101819.28;5072417;28;20467;-69
2022/03/28 05:44:35;;;;;;;0.40;0.30;;;;;;;4.05;91.59;101805.66;5075328;28;20494;-69
2022/03/28 05:47:01;;;;;;;0.40;0.30;;;;;;;4.11;92.52;101802.03;5075635;28;20447;-69
2022/03/28 05:49:28;;;;;;;0.40;0.30;;;;;;;4.16;91.99;101804.88;5075508;28;20477;-69
2022/03/28 05:51:54;;;;;;;0.40;0.30;;;;;;;4.28;92.24;101802.22;5075660;28;20438;-69
2022/03/28 05:54:21;;;;;;;0.40;0.30;;;;;;;4.41;93.95;101803.91;5075504;28;20852;-69
2022/03/28 05:56:49;;;;;;;0.40;0.30;;;;;;;4.62;95.91;101803.34;5075484;28;20851;-69
2022/03/28 05:59:16;;;;;;;0.40;0.30;;;;;;;4.86;99.03;101806.88;5075751;28;20437;-70
2022/03/28 06:01:43;;;;;;;0.40;0.30;;;;;;;5.06;99.45;101801.19;5075392;28;20846;-69
2022/03/28 06:04:09;;;;;;;0.80;0.80;;;;;;;5.24;100.00;101808.28;5075670;28;20441;-69
2022/03/28 06:06:36;;;;;;;0.40;0.30;;;;;;;5.40;99.91;101801.34;5075582;28;20449;-69
2022/03/28 06:09:03;;;;;;;0.40;0.30;;;;;;;5.53;100.00;101787.66;5075493;28;20480;-69
2022/03/28 06:11:30;;;;;;;0.40;0.30;;;;;;;5.66;100.00;101795.47;5075451;28;20510;-69
2022/03/28 06:13:58;;;;;;;0.40;0.30;;;;;;;5.78;99.48;101790.88;5075444;28;20437;-69
2022/03/28 06:16:24;;;;;;;0.40;0.30;;;;;;;5.90;99.15;101792.72;5075388;28;20471;-70
2022/03/28 06:18:51;;;;;;;0.50;0.43;;;;;;;5.99;98.89;101796.69;5075086;28;20902;-67
2022/03/28 06:21:17;;;;;;;0.97;0.97;;;;;;;6.08;98.47;101789.84;5075264;28;20469;-73
2022/03/28 06:23:44;;;;;;;0.40;0.30;;;;;;;6.22;97.62;101790.38;5075337;28;20438;-72
2022/03/28 06:26:11;;;;;;;0.40;0.30;;;;;;;6.28;97.52;101790.19;5075246;28;20464;-73
2022/03/28 06:28:39;;;;;;;0.40;0.30;;;;;;;6.37;97.20;101787.13;5075088;28;20445;-72
2022/03/28 06:31:07;;;;;;;0.40;0.30;;;;;;;6.40;96.83;101784.75;5074759;28;21119;-73
2022/03/28 06:33:33;;;;;;;0.40;0.30;;;;;;;6.41;97.29;101778.31;5075034;28;20453;-73
2022/03/28 06:36:01;;;;;;;0.40;0.30;;;;;;;6.55;96.45;101774.28;5075070;28;20449;-72
2022/03/28 06:38:27;;;;;;;0.40;0.30;;;;;;;6.63;96.48;101774.91;5074734;28;20951;-73
2022/03/28 06:40:54;;;;;;;0.40;0.30;;;;;;;6.69;96.41;101774.75;5074813;28;20470;-73
2022/03/28 06:43:20;;;;;;;0.40;0.30;;;;;;;6.78;96.16;101759.81;5074947;28;20480;-73
2022/03/28 06:45:47;;;;;;;0.40;0.30;;;;;;;6.91;95.82;101765.94;5074580;28;20969;-73
2022/03/28 06:48:15;;;;;;;0.40;0.30;;;;;;;7.02;95.46;101751.53;5074793;28;20502;-73
2022/03/28 06:50:41;;;;;;;0.40;0.30;;;;;;;7.02;95.65;101743.44;5074696;28;20563;-73
2022/03/28 06:53:08;;;;;;;0.40;0.30;;;;;;;7.11;95.69;101744.66;5074750;28;20449;-73
2022/03/28 06:55:34;;;;;;;0.40;0.30;;;;;;;7.24;95.23;101744.28;5074551;28;20434;-72
2022/03/28 06:58:01;;;;;;;0.40;0.30;;;;;;;7.46;93.72;101746.16;5074569;28;20445;-72
2022/03/28 07:00:27;;;;;;;0.40;0.30;;;;;;;7.47;93.78;101737.00;5074080;28;21016;-72
2022/03/28 07:02:53;;;;;;;0.40;0.30;;;;;;;7.49;93.73;101740.28;5074553;28;20430;-72
2022/03/28 07:05:21;;;;;;;0.40;0.30;;;;;;;7.53;93.72;101738.72;5074430;28;20445;-72
2022/03/28 07:07:49;;;;;;;0.40;0.30;;;;;;;7.56;93.67;101740.88;5074368;28;20452;-73
2022/03/28 07:10:17;;;;;;;0.40;0.30;;;;;;;7.69;92.67;101734.28;5074149;28;20518;-73
2022/03/28 07:12:44;;;;;;;2.87;2.67;;;;;;;7.77;92.32;101737.34;5074251;28;20446;-72
2022/03/28 07:15:11;;;;;;;0.40;0.30;;;;;;;7.80;91.82;101733.34;5074189;28;20502;-72
2022/03/28 07:17:46;;;;;;;0.40;0.30;;;;;;;7.90;91.53;101725.34;5074158;28;20445;-72
2022/03/28 07:20:12;;;;;;;0.40;0.30;;;;;;;7.98;91.22;101726.78;5074077;28;20472;-73
2022/03/28 07:22:40;;;;;;;0.40;0.30;;;;;;;8.01;90.74;101732.50;5074102;28;20484;-73
2022/03/28 07:25:08;;;;;;;0.40;0.30;;;;;;;8.12;90.26;101725.28;5073739;28;20456;-70
2022/03/28 07:27:36;;;;;;;0.40;0.30;;;;;;;8.16;89.76;101721.00;5073982;28;20438;-70
2022/03/28 07:30:04;;;;;;;0.40;0.30;;;;;;;8.26;89.58;101723.78;5073483;28;20489;-69
2022/03/28 07:32:30;;;;;;;0.40;0.30;;;;;;;8.32;89.34;101721.94;5074002;28;20477;-74
2022/03/28 07:34:56;;;;;;;0.40;0.30;;;;;;;8.32;89.13;101716.53;5073929;28;20445;-73
2022/03/28 07:37:23;;;;;;;0.40;0.30;;;;;;;8.44;88.87;101713.69;5073812;28;20437;-73
2022/03/28 07:39:51;;;;;;;0.57;0.57;;;;;;;8.50;88.89;101715.34;5073669;28;20519;-73
2022/03/28 07:42:17;;;;;;;0.40;0.30;;;;;;;8.57;88.47;101719.47;5073603;28;20437;-73
2022/03/28 07:44:44;;;;;;;0.40;0.30;;;;;;;8.65;87.83;101720.88;5073501;28;20441;-72
2022/03/28 07:47:11;;;;;;;0.40;0.30;;;;;;;8.68;87.57;101722.25;5073621;28;20528;-72
2022/03/28 07:49:38;;;;;;;0.40;0.30;;;;;;;8.72;87.85;101720.63;5073507;28;20485;-73
2022/03/28 07:52:04;;;;;;;0.40;0.30;;;;;;;8.84;87.00;101716.66;5073578;28;20444;-73
2022/03/28 07:54:32;;;;;;;0.40;0.30;;;;;;;8.97;85.89;101723.50;5073178;28;20939;-73
2022/03/28 07:57:00;;;;;;;0.70;0.70;;;;;;;9.03;85.18;101719.75;5073555;28;20456;-72
2022/03/28 07:59:27;;;;;;;0.40;0.30;;;;;;;9.03;85.54;101714.34;5073407;28;20441;-73
2022/03/28 08:01:53;;;;;;;0.40;0.30;;;;;;;9.13;85.29;101715.47;5073013;28;20460;-73
2022/03/28 08:04:20;;;;;;;0.40;0.30;;;;;;;9.19;84.70;101715.22;5073506;28;20456;-73
2022/03/28 08:06:46;;;;;;;0.40;0.30;;;;;;;9.24;83.99;101717.94;5072908;28;20499;-73
2022/03/28 08:09:12;;;;;;;0.40;0.30;;;;;;;9.20;84.17;101706.03;5073208;28;20437;-73
2022/03/28 08:11:40;;;;;;;0.40;0.30;;;;;;;9.23;83.93;101702.81;5073222;28;20473;-73
2022/03/28 08:14:08;;;;;;;0.40;0.30;;;;;;;9.22;84.88;101698.50;5073297;28;20484;-72
2022/03/28 08:16:34;;;;;;;0.40;0.30;;;;;;;9.19;84.94;101692.78;5073334;28;20441;-73
2022/03/28 08:19:01;;;;;;;0.40;0.30;;;;;;;9.16;84.40;101698.72;5073186;28;20448;-73
2022/03/28 08:21:28;;;;;;;0.40;0.20;;;;;;;9.11;85.45;101707.63;5073159;28;20510;-72
2022/03/28 08:23:55;;;;;;;0.40;0.30;;;;;;;9.15;84.97;101699.81;5073209;28;20540;-72
2022/03/28 08:26:21;;;;;;;0.40;0.30;;;;;;;9.25;85.00;101700.69;5072988;28;20551;-72
2022/03/28 08:28:47;;;;;;;0.40;0.30;;;;;;;9.36;84.71;101698.81;5073122;28;20445;-72
2022/03/28 08:31:15;;;;;;;0.40;0.30;;;;;;;9.35;84.29;101689.88;5072952;28;20492;-72
2022/03/28 08:33:42;;;;;;;0.40;0.30;;;;;;;9.25;84.27;101692.56;5074415;28;20790;-68
2022/03/28 08:36:08;;;;;;;0.40;0.30;;;;;;;9.41;83.25;101679.09;5073072;28;20434;-70
2022/03/28 08:38:37;;;;;;;0.40;0.30;;;;;;;9.42;83.78;101672.59;5073071;28;20440;-70
2022/03/28 08:41:06;;;;;;;0.50;0.50;;;;;;;9.44;84.16;101675.84;5072973;28;20864;-69
2022/03/28 08:43:33;;;;;;;0.40;0.30;;;;;;;9.51;83.25;101677.22;5073030;28;20510;-70
2022/03/28 08:46:01;;;;;;;0.40;0.30;;;;;;;9.65;82.23;101680.25;5072973;28;20438;-71
2022/03/28 08:48:34;;;;;;;0.40;0.30;;;;;;;9.70;80.87;101676.72;5072964;28;20477;-70
2022/03/28 08:51:02;;;;;;;0.40;0.30;;;;;;;9.70;81.53;101665.91;5072755;28;20560;-70
2022/03/28 08:53:29;;;;;;;0.40;0.30;;;;;;;9.70;81.55;101672.13;5072856;28;20448;-70
2022/03/28 08:55:55;;;;;;;0.40;0.30;;;;;;;9.79;81.62;101667.81;5072552;28;20441;-70
2022/03/28 08:58:22;;;;;;;0.40;0.20;;;;;;;9.86;81.08;101659.41;5072825;28;20446;-72
2022/03/28 09:00:48;;;;;;;0.40;0.20;;;;;;;9.90;80.28;101654.28;5072465;28;20473;-72
2022/03/28 09:03:15;;;;;;;0.40;0.30;;;;;;;9.92;79.38;101646.72;5072835;28;20499;-71
2022/03/28 09:05:47;;;;;;;1.80;1.70;;;;;;;10.06;80.39;101653.22;5072761;28;20453;-71
2022/03/28 09:08:13;;;;;;;0.40;0.30;;;;;;;10.27;78.68;101651.31;5072695;28;20418;-72
2022/03/28 09:10:47;;;;;;;0.40;0.30;;;;;;;10.53;77.85;101657.50;5072518;28;20863;-71
2022/03/28 09:13:17;;;;;;;0.40;0.30;;;;;;;10.71;76.83;101654.22;5072794;28;20453;-72
2022/03/28 09:15:46;;;;;;;0.40;0.30;;;;;;;10.86;75.36;101648.75;5072690;28;20433;-72
2022/03/28 09:18:20;;;;;;;0.40;0.30;;;;;;;10.90;74.57;101648.22;5073749;28;20540;-71
2022/03/28 09:20:50;;;;;;;0.40;0.30;;;;;;;10.95;74.63;101632.72;5076300;28;20463;-72
2022/03/28 09:23:34;;;;;;;0.40;0.30;;;;;;;11.01;74.36;101631.59;5076344;28;20472;-72
2022/03/28 09:26:07;;;;;;;0.40;0.30;;;;;;;11.09;73.72;101633.75;5076402;28;20432;-72
2022/03/28 09:28:49;;;;;;;0.40;0.30;;;;;;;11.16;72.94;101644.31;5076223;28;20429;-72
2022/03/28 09:31:17;;;;;;;0.40;0.30;;;;;;;11.10;73.30;101629.13;5076240;28;20560;-73
2022/03/28 09:33:58;;;;;;;0.40;0.23;;;;;;;11.16;73.52;101628.03;5076282;28;20449;-73
2022/03/28 09:36:50;;;;;;;0.40;0.30;;;;;;;11.36;73.30;101624.38;5076384;28;20425;-73
2022/03/28 09:39:19;;;;;;;0.40;0.30;;;;;;;11.48;72.54;101613.19;5076176;28;20437;-73
2022/03/28 09:41:57;;;;;;;0.40;0.30;;;;;;;11.57;71.53;101619.66;5076075;28;20438;-72
2022/03/28 09:44:33;;;;;;;0.40;0.30;;;;;;;11.62;71.48;101614.19;5076120;28;20845;-72
2022/03/28 09:47:07;;;;;;;0.40;0.40;;;;;;;11.69;71.09;101624.72;5076005;28;20826;-72
2022/03/28 09:49:33;;;;;;;0.40;0.30;;;;;;;11.79;70.05;101619.22;5075897;28;20504;-71
2022/03/28 09:52:07;;;;;;;0.40;0.30;;;;;;;11.75;69.23;101604.59;5075948;28;20449;-71
2022/03/28 09:54:44;;;;;;;0.40;0.30;;;;;;;11.77;68.94;101616.75;5075910;28;20469;-72
2022/03/28 09:57:13;;;;;;;0.40;0.20;;;;;;;11.83;69.00;101607.53;5075899;28;20467;-71
2022/03/28 09:59:42;;;;;;;0.40;0.30;;;;;;;11.83;69.93;101599.38;5075639;28;20484;-73
2022/03/28 10:02:20;;;;;;;0.57;0.50;;;;;;;11.78;70.33;101601.31;5075780;28;20449;-74
2022/03/28 10:04:49;;;;;;;0.40;0.30;;;;;;;11.72;70.03;101600.53;5075731;28;20491;-73
2022/03/28 10:07:17;;;;;;;1.70;1.60;;;;;;;11.71;68.36;101601.63;5075677;28;20445;-74
2022/03/28 10:09:44;;;;;;;0.40;0.30;;;;;;;11.70;68.26;101593.78;5075502;28;20476;-72
2022/03/28 10:12:10;;;;;;;0.40;0.30;;;;;;;11.83;67.48;101604.00;5075521;28;20486;-73
2022/03/28 10:14:37;;;;;;;0.40;0.20;;;;;;;11.88;67.67;101603.16;5075329;28;20449;-73
2022/03/28 10:17:05;;;;;;;0.40;0.30;;;;;;;11.96;67.02;101597.13;5075364;28;20445;-73
2022/03/28 10:19:33;;;;;;;0.40;0.30;;;;;;;12.04;68.41;101604.63;5075031;28;20984;-73
2022/03/28 10:22:02;;;;;;;0.40;0.30;;;;;;;12.25;66.74;101599.81;5075412;28;20474;-73
2022/03/28 10:24:33;;;;;;;0.40;0.30;;;;;;;12.33;65.90;101597.28;5075292;28;20842;-73
2022/03/28 10:27:01;;;;;;;0.40;0.30;;;;;;;12.43;66.48;101595.56;5075231;28;20430;-72
2022/03/28 10:29:35;;;;;;;0.40;0.30;;;;;;;12.57;65.49;101585.59;5074660;28;20441;-73
2022/03/28 10:32:07;;;;;;;0.40;0.30;;;;;;;12.62;64.06;101582.84;5074865;28;20461;-74
2022/03/28 10:34:41;;;;;;;0.77;0.77;;;;;;;12.71;64.13;101581.09;5075434;28;20500;-68
2022/03/28 10:37:29;;;;;;;0.40;0.30;;;;;;;12.87;63.71;101577.06;5075022;28;20443;-70
2022/03/28 10:40:26;;;;;;;0.40;0.30;;;;;;;12.99;63.17;101571.22;5074953;28;20500;-70
2022/03/28 10:43:00;;;;;;;0.40;0.20;;;;;;;13.24;62.98;101572.00;5074946;28;20475;-69
2022/03/28 10:45:34;;;;;;;0.40;0.30;;;;;;;13.37;61.04;101560.38;5075026;28;20426;-73
2022/03/28 10:48:01;;;;;;;0.40;0.30;;;;;;;13.46;60.08;101560.50;5074839;28;20437;-73
2022/03/28 10:50:31;;;;;;;0.40;0.30;;;;;;;13.51;60.19;101555.78;5074244;28;20489;-73
2022/03/28 10:53:13;;;;;;;0.40;0.30;;;;;;;13.49;60.13;101552.56;5074781;28;20430;-74
2022/03/28 10:55:49;;;;;;;0.40;0.30;;;;;;;13.63;61.06;101558.03;5074642;28;20429;-74
2022/03/28 10:58:22;;;;;;;0.40;0.30;;;;;;;13.78;59.05;101548.81;5073989;28;20437;-75
2022/03/28 11:01:31;;;;;;;0.40;0.27;;;;;;;13.74;59.03;101548.59;5074219;28;20488;-73
2022/03/28 11:04:04;;;;;;;0.40;0.30;;;;;;;13.80;59.01;101538.44;5074198;28;20972;-72
2022/03/28 11:06:59;;;;;;;0.40;0.30;;;;;;;13.88;58.55;101537.75;5074412;28;20437;-71
2022/03/28 11:09:43;;;;;;;0.40;0.30;;;;;;;13.97;58.45;101537.88;5074352;28;20430;-73
2022/03/28 11:12:13;;;;;;;0.40;0.30;;;;;;;14.06;59.01;101523.25;5074403;28;20480;-73
2022/03/28 11:14:43;;;;;;;0.40;0.30;;;;;;;14.25;58.41;101520.41;5074283;28;20429;-73
2022/03/28 11:17:15;;;;;;;0.40;0.30;;;;;;;14.50;58.38;101524.59;5074275;28;20446;-72
2022/03/28 11:19:53;;;;;;;0.40;0.20;;;;;;;14.68;57.01;101517.41;5074619;28;20559;-73
2022/03/28 11:22:20;;;;;;;0.40;0.27;;;;;;;15.09;55.33;101517.28;5073893;28;20421;-74
2022/03/28 11:24:49;;;;;;;0.40;0.30;;;;;;;15.95;53.50;101521.75;5074155;28;20477;-73
2022/03/28 11:27:17;;;;;;;0.40;0.30;;;;;;;16.86;50.05;101514.78;5074085;28;20559;-72
2022/03/28 11:29:45;;;;;;;0.40;0.30;;;;;;;17.54;47.95;101510.44;5073967;28;20465;-73
2022/03/28 11:32:15;;;;;;;0.40;0.30;;;;;;;18.39;46.31;101517.88;5073602;28;20572;-74
2022/03/28 11:34:42;;;;;;;0.40;0.30;;;;;;;19.06;45.06;101505.19;5073933;28;20446;-73
2022/03/28 11:37:08;;;;;;;0.40;0.20;;;;;;;19.87;42.59;101509.25;5073632;28;20961;-73
2022/03/28 11:39:55;;;;;;;0.40;0.23;;;;;;;20.58;41.24;101500.56;5073786;28;20445;-74